Time,TemperatureF,DewpointF,PressureIn,WindDirection,WindDirectionDegrees,WindSpeedMPH,WindSpeedGustMPH,Humidity,HourlyPrecipIn,Conditions,Clouds,dailyrainin,SolarRadiationWatts/m^2,SoftwareType,DateUTC
2013-02-18 00:02:00,48.0,45.0,-100.00,SE,145,5.0,9.0,88,0.00,,,0.00,0.000000,,2013-02-18 06:02:00,
2013-02-18 01:32:00,47.0,45.0,-100.00,SE,135,6.0,9.0,92,-99.99,,,0.00,0.000000,,2013-02-18 07:32:00,
2013-02-18 01:42:00,47.0,45.0,-100.00,SE,135,6.0,9.0,92,-99.99,,,0.00,0.000000,,2013-02-18 07:42:00,
2013-02-18 01:52:00,47.0,45.0,-100.00,SE,135,6.0,9.0,92,-99.99,,,0.00,0.000000,,2013-02-18 07:52:00,
2013-02-18 02:01:00,47.0,45.0,-100.00,SE,135,6.0,9.0,92,-99.99,,,0.00,0.000000,,2013-02-18 08:01:00,
2013-02-18 02:33:00,50.0,47.0,-100.00,SE,144,7.0,12.0,91,0.00,,,0.00,0.000000,,2013-02-18 08:33:00,
2013-02-18 02:42:00,50.0,47.0,-100.00,SE,144,7.0,12.0,91,0.00,,,0.00,0.000000,,2013-02-18 08:42:00,
2013-02-18 02:52:00,50.0,47.0,-100.00,SE,144,7.0,12.0,91,0.00,,,0.00,0.000000,,2013-02-18 08:52:00,
2013-02-18 03:02:00,50.0,47.0,-100.00,SE,144,7.0,12.0,91,0.00,,,0.00,0.000000,,2013-02-18 09:02:00,
2013-02-18 03:32:00,56.0,50.0,-100.00,SSE,153,8.0,16.0,79,0.00,,,0.00,0.000000,,2013-02-18 09:32:00,
2013-02-18 03:42:00,56.0,50.0,-100.00,SSE,153,8.0,16.0,79,0.00,,,0.00,0.000000,,2013-02-18 09:42:00,
2013-02-18 03:52:00,56.0,50.0,-100.00,SSE,153,8.0,16.0,79,0.00,,,0.00,0.000000,,2013-02-18 09:52:00,
2013-02-18 04:01:00,56.0,50.0,-100.00,SSE,153,8.0,16.0,79,0.00,,,0.00,0.000000,,2013-02-18 10:01:00,
2013-02-18 04:32:00,58.0,50.0,-100.00,SE,146,7.0,15.0,76,0.00,,,0.00,0.000000,,2013-02-18 10:32:00,
2013-02-18 04:42:00,58.0,50.0,-100.00,SE,146,7.0,15.0,76,0.00,,,0.00,0.000000,,2013-02-18 10:42:00,
2013-02-18 04:53:00,58.0,50.0,-100.00,SE,146,7.0,15.0,76,0.00,,,0.00,0.000000,,2013-02-18 10:53:00,
2013-02-18 05:01:00,58.0,50.0,-100.00,SE,146,7.0,15.0,76,0.00,,,0.00,0.000000,,2013-02-18 11:01:00,
2013-02-18 05:33:00,58.0,51.0,-100.00,SE,143,6.0,12.0,78,0.00,,,0.00,0.000000,,2013-02-18 11:33:00,
2013-02-18 05:43:00,58.0,51.0,-100.00,SE,143,6.0,12.0,78,0.00,,,0.00,0.000000,,2013-02-18 11:43:00,
2013-02-18 05:53:00,58.0,51.0,-100.00,SE,143,6.0,12.0,78,0.00,,,0.00,0.000000,,2013-02-18 11:53:00,
2013-02-18 06:02:00,58.0,51.0,-100.00,SE,143,6.0,12.0,78,0.00,,,0.00,0.000000,,2013-02-18 12:02:00,
2013-02-18 06:32:00,58.0,52.0,-100.00,SE,140,7.0,14.0,81,0.00,,,0.00,0.000000,,2013-02-18 12:32:00,
2013-02-18 06:42:00,58.0,52.0,-100.00,SE,140,7.0,14.0,81,0.00,,,0.00,0.000000,,2013-02-18 12:42:00,
2013-02-18 06:53:00,58.0,52.0,-100.00,SE,140,7.0,14.0,81,0.00,,,0.00,0.000000,,2013-02-18 12:53:00,
2013-02-18 07:03:00,58.0,52.0,-100.00,SE,140,7.0,14.0,81,0.00,,,0.00,0.000000,,2013-02-18 13:03:00,
2013-02-18 07:33:00,60.0,54.0,-100.00,SSE,149,7.0,15.0,80,0.00,,,-99.99,1.000000,,2013-02-18 13:33:00,
2013-02-18 07:42:00,60.0,54.0,-100.00,SSE,149,7.0,15.0,80,0.00,,,-99.99,1.000000,,2013-02-18 13:42:00,
2013-02-18 07:53:00,60.0,54.0,-100.00,SSE,149,7.0,15.0,80,0.00,,,-99.99,1.000000,,2013-02-18 13:53:00,
2013-02-18 08:02:00,60.0,54.0,-100.00,SSE,149,7.0,15.0,80,0.00,,,-99.99,1.000000,,2013-02-18 14:02:00,
2013-02-18 08:34:00,61.0,54.0,-100.00,SE,145,8.0,14.0,78,0.00,,,0.00,29.000000,,2013-02-18 14:34:00,
2013-02-18 08:42:00,61.0,54.0,-100.00,SE,145,8.0,14.0,78,0.00,,,0.00,29.000000,,2013-02-18 14:42:00,
2013-02-18 08:53:00,61.0,54.0,-100.00,SE,145,8.0,14.0,78,0.00,,,0.00,29.000000,,2013-02-18 14:53:00,
2013-02-18 09:02:00,61.0,54.0,-100.00,SE,145,8.0,14.0,78,0.00,,,0.00,29.000000,,2013-02-18 15:02:00,
2013-02-18 09:32:00,64.0,55.0,-100.00,SSE,148,8.0,14.0,73,0.00,,,0.00,110.000000,,2013-02-18 15:32:00,
2013-02-18 09:53:00,64.0,55.0,-100.00,SSE,148,8.0,14.0,73,0.00,,,0.00,110.000000,,2013-02-18 15:53:00,
2013-02-18 10:03:00,64.0,55.0,-100.00,SSE,148,8.0,14.0,73,0.00,,,0.00,110.000000,,2013-02-18 16:03:00,
2013-02-18 10:33:00,68.0,56.0,-100.00,South,175,10.0,20.0,65,0.00,,,0.00,230.000000,,2013-02-18 16:33:00,
2013-02-18 10:43:00,68.0,56.0,-100.00,South,175,10.0,20.0,65,0.00,,,0.00,230.000000,,2013-02-18 16:43:00,
2013-02-18 10:53:00,68.0,56.0,-100.00,South,175,10.0,20.0,65,0.00,,,0.00,230.000000,,2013-02-18 16:53:00,
2013-02-18 11:03:00,68.0,56.0,-100.00,South,175,10.0,20.0,65,0.00,,,0.00,230.000000,,2013-02-18 17:03:00,
2013-02-18 11:33:00,69.0,57.0,-100.00,South,177,12.0,25.0,65,0.00,,,0.00,217.000000,,2013-02-18 17:33:00,
2013-02-18 11:43:00,69.0,57.0,-100.00,South,177,12.0,25.0,65,0.00,,,0.00,217.000000,,2013-02-18 17:43:00,
2013-02-18 11:53:00,69.0,57.0,-100.00,South,177,12.0,25.0,65,0.00,,,0.00,217.000000,,2013-02-18 17:53:00,
2013-02-18 12:02:00,69.0,57.0,-100.00,South,177,12.0,25.0,65,0.00,,,0.00,217.000000,,2013-02-18 18:02:00,
2013-02-18 12:33:00,70.0,56.0,-100.00,SSE,168,17.0,32.0,62,0.00,,,0.00,328.000000,,2013-02-18 18:33:00,
2013-02-18 12:43:00,70.0,56.0,-100.00,SSE,168,17.0,32.0,62,0.00,,,0.00,328.000000,,2013-02-18 18:43:00,
2013-02-18 12:53:00,70.0,56.0,-100.00,SSE,168,17.0,32.0,62,0.00,,,0.00,328.000000,,2013-02-18 18:53:00,
2013-02-18 13:03:00,70.0,56.0,-100.00,SSE,168,17.0,32.0,62,0.00,,,0.00,328.000000,,2013-02-18 19:03:00,
2013-02-18 13:34:00,69.0,58.0,-100.00,SSE,167,11.0,31.0,67,0.00,,,0.00,253.000000,,2013-02-18 19:34:00,
2013-02-18 13:43:00,69.0,58.0,-100.00,SSE,167,11.0,31.0,67,0.00,,,0.00,253.000000,,2013-02-18 19:43:00,
2013-02-18 14:02:00,69.0,58.0,-100.00,SSE,167,11.0,31.0,67,0.00,,,0.00,253.000000,,2013-02-18 20:02:00,
2013-02-18 15:33:00,67.0,58.0,-100.00,South,173,12.0,28.0,73,-99.99,,,0.00,62.000000,,2013-02-18 21:33:00,
2013-02-18 15:43:00,67.0,58.0,-100.00,South,173,12.0,28.0,73,-99.99,,,0.00,62.000000,,2013-02-18 21:43:00,
2013-02-18 15:53:00,67.0,58.0,-100.00,South,173,12.0,28.0,73,-99.99,,,0.00,62.000000,,2013-02-18 21:53:00,
2013-02-18 16:02:00,67.0,58.0,-100.00,South,173,12.0,28.0,73,-99.99,,,0.00,62.000000,,2013-02-18 22:02:00,
2013-02-18 17:34:00,63.0,62.0,-100.00,WNW,290,7.0,19.0,95,-99.99,,,0.94,7.000000,,2013-02-18 23:34:00,
2013-02-18 17:43:00,63.0,62.0,-100.00,WNW,290,7.0,19.0,95,-99.99,,,0.94,7.000000,,2013-02-18 23:43:00,
2013-02-18 17:53:00,63.0,62.0,-100.00,WNW,290,7.0,19.0,95,-99.99,,,0.94,7.000000,,2013-02-18 23:53:00,
2013-02-18 18:03:00,63.0,62.0,-100.00,WNW,290,7.0,19.0,95,-99.99,,,0.94,7.000000,,2013-02-19 00:03:00,
2013-02-18 18:35:00,65.0,63.0,-100.00,SW,215,8.0,19.0,93,0.70,,,1.64,14.000000,,2013-02-19 00:35:00,
2013-02-18 18:44:00,65.0,63.0,-100.00,SW,215,8.0,19.0,93,0.70,,,1.64,14.000000,,2013-02-19 00:44:00,
2013-02-18 18:54:00,65.0,63.0,-100.00,SW,215,8.0,19.0,93,0.70,,,1.64,14.000000,,2013-02-19 00:54:00,
2013-02-18 19:03:00,65.0,63.0,-100.00,SW,215,8.0,19.0,93,0.70,,,1.64,14.000000,,2013-02-19 01:03:00,
2013-02-18 19:35:00,64.0,62.0,-100.00,SSW,211,8.0,18.0,94,0.02,,,-99.99,0.000000,,2013-02-19 01:35:00,
2013-02-18 19:45:00,64.0,62.0,-100.00,SSW,211,8.0,18.0,94,0.02,,,-99.99,0.000000,,2013-02-19 01:45:00,
2013-02-18 19:56:00,64.0,62.0,-100.00,SSW,211,8.0,18.0,94,0.02,,,-99.99,0.000000,,2013-02-19 01:56:00,
2013-02-18 20:03:00,64.0,62.0,-100.00,SSW,211,8.0,18.0,94,0.02,,,-99.99,0.000000,,2013-02-19 02:03:00,
2013-02-18 20:05:00,64.0,63.0,-100.00,SSW,209,7.0,13.0,96,0.03,,,1.69,0.000000,,2013-02-19 02:05:00,
2013-02-18 20:35:00,64.0,63.0,-100.00,SSW,209,7.0,13.0,96,0.03,,,1.69,0.000000,,2013-02-19 02:35:00,
2013-02-18 20:44:00,64.0,63.0,-100.00,SSW,209,7.0,13.0,96,0.03,,,1.69,0.000000,,2013-02-19 02:44:00,
2013-02-18 20:55:00,64.0,63.0,-100.00,SSW,209,7.0,13.0,96,0.03,,,1.69,0.000000,,2013-02-19 02:55:00,
2013-02-18 21:35:00,64.0,63.0,-100.00,SW,214,6.0,14.0,95,0.00,,,1.69,0.000000,,2013-02-19 03:35:00,
2013-02-18 21:45:00,64.0,63.0,-100.00,SW,214,6.0,14.0,95,0.00,,,1.69,0.000000,,2013-02-19 03:45:00,
2013-02-18 21:55:00,64.0,63.0,-100.00,SW,214,6.0,14.0,95,0.00,,,1.69,0.000000,,2013-02-19 03:55:00,
2013-02-18 22:02:00,64.0,63.0,-100.00,SW,214,6.0,14.0,95,0.00,,,1.69,0.000000,,2013-02-19 04:02:00,
2013-02-18 22:34:00,64.0,63.0,-100.00,SW,216,6.0,10.0,96,0.00,,,1.69,0.000000,,2013-02-19 04:34:00,
2013-02-18 22:45:00,64.0,63.0,-100.00,SW,216,6.0,10.0,96,0.00,,,1.69,0.000000,,2013-02-19 04:45:00,
2013-02-18 22:55:00,64.0,63.0,-100.00,SW,216,6.0,10.0,96,0.00,,,1.69,0.000000,,2013-02-19 04:55:00,
2013-02-18 23:02:00,64.0,63.0,-100.00,SW,216,6.0,10.0,96,0.00,,,1.69,0.000000,,2013-02-19 05:02:00,
2013-02-18 23:32:00,57.0,56.0,-100.00,WNW,287,6.0,19.0,95,0.19,,,1.88,0.000000,,2013-02-19 05:32:00,
2013-02-18 23:43:00,57.0,56.0,-100.00,WNW,287,6.0,19.0,95,0.19,,,1.88,0.000000,,2013-02-19 05:43:00,
2013-02-18 23:52:00,57.0,56.0,-100.00,WNW,287,6.0,19.0,95,0.19,,,1.88,0.000000,,2013-02-19 05:52:00,